sensor_id;sensor_type;location;lat;lon;timestamp;P1;durP1;ratioP1;P2;durP2;ratioP2
5995;SDS011;3026;53.612;7.278;2023-04-15T00:00:51;10.70;;;7.53;;
5995;SDS011;3026;53.612;7.278;2023-04-15T00:03:18;10.10;;;7.07;;
5995;SDS011;3026;53.612;7.278;2023-04-15T00:05:45;9.73;;;7.27;;
5995;SDS011;3026;53.612;7.278;2023-04-15T00:08:13;9.17;;;7.33;;
5995;SDS011;3026;53.612;7.278;2023-04-15T00:10:40;9.57;;;7.03;;
5995;SDS011;3026;53.612;7.278;2023-04-15T00:13:08;8.97;;;7.33;;
5995;SDS011;3026;53.612;7.278;2023-04-15T00:15:35;10.77;;;7.27;;
5995;SDS011;3026;53.612;7.278;2023-04-15T00:18:02;10.33;;;7.37;;
5995;SDS011;3026;53.612;7.278;2023-04-15T00:20:29;8.53;;;6.60;;
5995;SDS011;3026;53.612;7.278;2023-04-15T00:22:56;9.93;;;7.13;;
5995;SDS011;3026;53.612;7.278;2023-04-15T00:25:26;13.30;;;7.60;;
5995;SDS011;3026;53.612;7.278;2023-04-15T00:27:53;9.60;;;6.77;;
5995;SDS011;3026;53.612;7.278;2023-04-15T00:30:20;8.23;;;6.27;;
5995;SDS011;3026;53.612;7.278;2023-04-15T00:32:47;8.53;;;6.60;;
5995;SDS011;3026;53.612;7.278;2023-04-15T00:35:14;9.00;;;6.93;;
5995;SDS011;3026;53.612;7.278;2023-04-15T00:37:41;9.00;;;6.27;;
5995;SDS011;3026;53.612;7.278;2023-04-15T00:40:09;9.40;;;6.57;;
5995;SDS011;3026;53.612;7.278;2023-04-15T00:42:39;8.13;;;6.07;;
5995;SDS011;3026;53.612;7.278;2023-04-15T00:45:06;8.83;;;6.03;;
5995;SDS011;3026;53.612;7.278;2023-04-15T00:47:34;10.93;;;6.57;;
5995;SDS011;3026;53.612;7.278;2023-04-15T00:50:02;9.80;;;6.63;;
5995;SDS011;3026;53.612;7.278;2023-04-15T00:52:29;9.40;;;7.07;;
5995;SDS011;3026;53.612;7.278;2023-04-15T00:54:56;6.67;;;5.70;;
5995;SDS011;3026;53.612;7.278;2023-04-15T00:57:23;7.27;;;5.87;;
5995;SDS011;3026;53.612;7.278;2023-04-15T00:59:51;8.47;;;6.47;;
5995;SDS011;3026;53.612;7.278;2023-04-15T01:02:18;9.63;;;6.23;;
5995;SDS011;3026;53.612;7.278;2023-04-15T01:04:45;10.07;;;6.60;;
5995;SDS011;3026;53.612;7.278;2023-04-15T01:07:11;8.17;;;6.53;;
5995;SDS011;3026;53.612;7.278;2023-04-15T01:09:38;9.00;;;6.87;;
5995;SDS011;3026;53.612;7.278;2023-04-15T01:12:05;9.30;;;6.43;;
5995;SDS011;3026;53.612;7.278;2023-04-15T01:14:33;9.73;;;6.50;;
5995;SDS011;3026;53.612;7.278;2023-04-15T01:17:01;9.57;;;6.60;;
5995;SDS011;3026;53.612;7.278;2023-04-15T01:19:28;10.47;;;6.00;;
5995;SDS011;3026;53.612;7.278;2023-04-15T01:21:54;8.47;;;6.07;;
5995;SDS011;3026;53.612;7.278;2023-04-15T01:24:21;8.27;;;5.60;;
5995;SDS011;3026;53.612;7.278;2023-04-15T01:26:52;9.10;;;6.17;;
5995;SDS011;3026;53.612;7.278;2023-04-15T01:29:19;8.57;;;6.00;;
5995;SDS011;3026;53.612;7.278;2023-04-15T01:31:49;7.20;;;6.27;;
5995;SDS011;3026;53.612;7.278;2023-04-15T01:34:17;7.87;;;6.07;;
5995;SDS011;3026;53.612;7.278;2023-04-15T01:36:44;7.43;;;5.20;;
5995;SDS011;3026;53.612;7.278;2023-04-15T01:39:11;8.23;;;5.67;;
5995;SDS011;3026;53.612;7.278;2023-04-15T01:41:37;8.50;;;5.70;;
5995;SDS011;3026;53.612;7.278;2023-04-15T01:44:06;8.50;;;5.60;;
5995;SDS011;3026;53.612;7.278;2023-04-15T01:46:33;9.20;;;5.43;;
5995;SDS011;3026;53.612;7.278;2023-04-15T01:49:01;6.70;;;5.27;;
5995;SDS011;3026;53.612;7.278;2023-04-15T01:51:27;6.43;;;5.27;;
5995;SDS011;3026;53.612;7.278;2023-04-15T01:53:54;7.23;;;5.10;;
5995;SDS011;3026;53.612;7.278;2023-04-15T01:56:21;7.53;;;4.90;;
5995;SDS011;3026;53.612;7.278;2023-04-15T01:58:49;6.00;;;4.97;;
5995;SDS011;3026;53.612;7.278;2023-04-15T02:01:17;6.73;;;5.27;;
5995;SDS011;3026;53.612;7.278;2023-04-15T02:03:44;7.93;;;5.50;;
5995;SDS011;3026;53.612;7.278;2023-04-15T02:06:11;6.10;;;5.00;;
5995;SDS011;3026;53.612;7.278;2023-04-15T02:08:38;5.50;;;4.50;;
5995;SDS011;3026;53.612;7.278;2023-04-15T02:11:05;5.67;;;4.80;;
5995;SDS011;3026;53.612;7.278;2023-04-15T02:13:32;5.20;;;4.03;;
5995;SDS011;3026;53.612;7.278;2023-04-15T02:15:59;5.83;;;4.37;;
5995;SDS011;3026;53.612;7.278;2023-04-15T02:18:27;6.13;;;4.40;;
5995;SDS011;3026;53.612;7.278;2023-04-15T02:20:53;5.90;;;4.10;;
5995;SDS011;3026;53.612;7.278;2023-04-15T02:23:21;8.53;;;4.40;;
5995;SDS011;3026;53.612;7.278;2023-04-15T02:25:48;4.53;;;3.90;;
5995;SDS011;3026;53.612;7.278;2023-04-15T02:28:15;5.93;;;3.40;;
5995;SDS011;3026;53.612;7.278;2023-04-15T02:30:41;4.47;;;4.00;;
5995;SDS011;3026;53.612;7.278;2023-04-15T02:33:08;4.20;;;3.80;;
5995;SDS011;3026;53.612;7.278;2023-04-15T02:35:36;5.03;;;3.70;;
5995;SDS011;3026;53.612;7.278;2023-04-15T02:38:06;4.77;;;3.80;;
5995;SDS011;3026;53.612;7.278;2023-04-15T02:40:33;6.33;;;4.43;;
5995;SDS011;3026;53.612;7.278;2023-04-15T02:43:00;5.73;;;3.83;;
5995;SDS011;3026;53.612;7.278;2023-04-15T02:45:26;5.90;;;3.90;;
5995;SDS011;3026;53.612;7.278;2023-04-15T02:47:53;4.07;;;3.40;;
5995;SDS011;3026;53.612;7.278;2023-04-15T02:50:20;4.07;;;3.60;;
5995;SDS011;3026;53.612;7.278;2023-04-15T02:52:49;4.37;;;3.50;;
5995;SDS011;3026;53.612;7.278;2023-04-15T02:55:16;5.17;;;3.43;;
5995;SDS011;3026;53.612;7.278;2023-04-15T02:57:43;4.47;;;3.93;;
5995;SDS011;3026;53.612;7.278;2023-04-15T03:00:10;6.10;;;3.70;;
5995;SDS011;3026;53.612;7.278;2023-04-15T03:02:38;4.70;;;3.77;;
5995;SDS011;3026;53.612;7.278;2023-04-15T03:05:09;5.30;;;3.80;;
5995;SDS011;3026;53.612;7.278;2023-04-15T03:07:37;4.37;;;3.33;;
5995;SDS011;3026;53.612;7.278;2023-04-15T03:10:06;5.07;;;3.90;;
5995;SDS011;3026;53.612;7.278;2023-04-15T03:12:33;5.03;;;4.07;;
5995;SDS011;3026;53.612;7.278;2023-04-15T03:15:00;4.13;;;3.73;;
5995;SDS011;3026;53.612;7.278;2023-04-15T03:17:27;5.83;;;3.83;;
5995;SDS011;3026;53.612;7.278;2023-04-15T03:19:54;4.70;;;3.80;;
5995;SDS011;3026;53.612;7.278;2023-04-15T03:22:20;4.67;;;4.03;;
5995;SDS011;3026;53.612;7.278;2023-04-15T03:24:47;5.30;;;4.07;;
5995;SDS011;3026;53.612;7.278;2023-04-15T03:27:16;6.90;;;4.30;;
5995;SDS011;3026;53.612;7.278;2023-04-15T03:29:42;5.63;;;4.30;;
5995;SDS011;3026;53.612;7.278;2023-04-15T03:32:09;7.47;;;5.17;;
5995;SDS011;3026;53.612;7.278;2023-04-15T03:34:36;7.00;;;5.23;;
5995;SDS011;3026;53.612;7.278;2023-04-15T03:37:04;6.87;;;5.27;;
5995;SDS011;3026;53.612;7.278;2023-04-15T03:39:31;6.70;;;5.50;;
5995;SDS011;3026;53.612;7.278;2023-04-15T03:41:57;7.30;;;4.67;;
5995;SDS011;3026;53.612;7.278;2023-04-15T03:44:27;10.30;;;5.57;;
5995;SDS011;3026;53.612;7.278;2023-04-15T03:46:53;8.63;;;5.60;;
5995;SDS011;3026;53.612;7.278;2023-04-15T03:49:20;6.63;;;5.30;;
5995;SDS011;3026;53.612;7.278;2023-04-15T03:51:48;9.70;;;5.63;;
5995;SDS011;3026;53.612;7.278;2023-04-15T03:54:15;7.77;;;5.90;;
5995;SDS011;3026;53.612;7.278;2023-04-15T03:56:42;8.10;;;6.00;;
5995;SDS011;3026;53.612;7.278;2023-04-15T03:59:08;10.17;;;5.73;;
5995;SDS011;3026;53.612;7.278;2023-04-15T04:01:36;8.70;;;6.57;;
5995;SDS011;3026;53.612;7.278;2023-04-15T04:04:03;8.93;;;6.90;;
5995;SDS011;3026;53.612;7.278;2023-04-15T04:06:30;11.27;;;6.80;;
5995;SDS011;3026;53.612;7.278;2023-04-15T04:08:57;12.10;;;7.50;;
5995;SDS011;3026;53.612;7.278;2023-04-15T04:11:24;9.80;;;6.50;;
5995;SDS011;3026;53.612;7.278;2023-04-15T04:13:52;10.27;;;7.23;;
5995;SDS011;3026;53.612;7.278;2023-04-15T04:16:19;9.10;;;5.93;;
5995;SDS011;3026;53.612;7.278;2023-04-15T04:18:47;10.97;;;6.60;;
5995;SDS011;3026;53.612;7.278;2023-04-15T04:21:13;8.97;;;6.60;;
5995;SDS011;3026;53.612;7.278;2023-04-15T04:23:40;9.83;;;6.07;;
5995;SDS011;3026;53.612;7.278;2023-04-15T04:26:07;8.63;;;5.73;;
5995;SDS011;3026;53.612;7.278;2023-04-15T04:28:34;8.53;;;5.93;;
5995;SDS011;3026;53.612;7.278;2023-04-15T04:31:01;10.70;;;6.70;;
5995;SDS011;3026;53.612;7.278;2023-04-15T04:33:27;10.60;;;7.13;;
5995;SDS011;3026;53.612;7.278;2023-04-15T04:35:55;9.10;;;6.03;;
5995;SDS011;3026;53.612;7.278;2023-04-15T04:38:22;11.43;;;7.20;;
5995;SDS011;3026;53.612;7.278;2023-04-15T04:40:49;11.53;;;7.43;;
5995;SDS011;3026;53.612;7.278;2023-04-15T04:43:16;10.97;;;7.43;;
5995;SDS011;3026;53.612;7.278;2023-04-15T04:45:43;14.50;;;8.17;;
5995;SDS011;3026;53.612;7.278;2023-04-15T04:48:09;11.60;;;8.33;;
5995;SDS011;3026;53.612;7.278;2023-04-15T04:50:36;10.43;;;7.30;;
5995;SDS011;3026;53.612;7.278;2023-04-15T04:53:04;9.57;;;6.07;;
5995;SDS011;3026;53.612;7.278;2023-04-15T04:55:31;10.47;;;6.13;;
5995;SDS011;3026;53.612;7.278;2023-04-15T04:58:01;8.37;;;5.53;;
5995;SDS011;3026;53.612;7.278;2023-04-15T05:00:27;7.77;;;5.50;;
5995;SDS011;3026;53.612;7.278;2023-04-15T05:02:54;8.97;;;5.30;;
5995;SDS011;3026;53.612;7.278;2023-04-15T05:05:21;7.43;;;5.27;;
5995;SDS011;3026;53.612;7.278;2023-04-15T05:07:48;9.23;;;5.47;;
5995;SDS011;3026;53.612;7.278;2023-04-15T05:10:16;9.47;;;5.90;;
5995;SDS011;3026;53.612;7.278;2023-04-15T05:12:43;7.20;;;5.73;;
5995;SDS011;3026;53.612;7.278;2023-04-15T05:15:10;9.40;;;6.23;;
5995;SDS011;3026;53.612;7.278;2023-04-15T05:17:37;9.83;;;5.90;;
5995;SDS011;3026;53.612;7.278;2023-04-15T05:20:04;12.63;;;5.80;;
5995;SDS011;3026;53.612;7.278;2023-04-15T05:22:31;7.10;;;5.13;;
5995;SDS011;3026;53.612;7.278;2023-04-15T05:24:58;9.73;;;5.27;;
5995;SDS011;3026;53.612;7.278;2023-04-15T05:27:26;7.07;;;4.80;;
5995;SDS011;3026;53.612;7.278;2023-04-15T05:29:53;7.73;;;4.70;;
5995;SDS011;3026;53.612;7.278;2023-04-15T05:32:20;6.80;;;4.70;;
5995;SDS011;3026;53.612;7.278;2023-04-15T05:34:47;6.40;;;4.80;;
5995;SDS011;3026;53.612;7.278;2023-04-15T05:37:14;9.00;;;5.67;;
5995;SDS011;3026;53.612;7.278;2023-04-15T05:39:40;8.50;;;6.00;;
5995;SDS011;3026;53.612;7.278;2023-04-15T05:42:07;8.50;;;5.73;;
5995;SDS011;3026;53.612;7.278;2023-04-15T05:44:36;10.03;;;6.20;;
5995;SDS011;3026;53.612;7.278;2023-04-15T05:47:02;9.17;;;5.50;;
5995;SDS011;3026;53.612;7.278;2023-04-15T05:49:30;8.43;;;6.43;;
5995;SDS011;3026;53.612;7.278;2023-04-15T05:51:56;7.80;;;5.90;;
5995;SDS011;3026;53.612;7.278;2023-04-15T05:54:23;7.83;;;5.97;;
5995;SDS011;3026;53.612;7.278;2023-04-15T05:56:51;9.57;;;6.57;;
5995;SDS011;3026;53.612;7.278;2023-04-15T05:59:18;12.57;;;7.70;;
5995;SDS011;3026;53.612;7.278;2023-04-15T06:01:46;11.10;;;6.70;;
5995;SDS011;3026;53.612;7.278;2023-04-15T06:04:13;8.83;;;6.30;;
5995;SDS011;3026;53.612;7.278;2023-04-15T06:06:41;10.03;;;6.27;;
5995;SDS011;3026;53.612;7.278;2023-04-15T06:09:07;6.43;;;4.77;;
5995;SDS011;3026;53.612;7.278;2023-04-15T06:11:34;8.87;;;6.00;;
5995;SDS011;3026;53.612;7.278;2023-04-15T06:14:01;6.43;;;5.10;;
5995;SDS011;3026;53.612;7.278;2023-04-15T06:16:28;6.47;;;4.80;;
5995;SDS011;3026;53.612;7.278;2023-04-15T06:18:56;8.20;;;5.37;;
5995;SDS011;3026;53.612;7.278;2023-04-15T06:21:23;6.17;;;4.70;;
5995;SDS011;3026;53.612;7.278;2023-04-15T06:23:49;5.80;;;4.50;;
5995;SDS011;3026;53.612;7.278;2023-04-15T06:26:16;5.77;;;4.33;;
5995;SDS011;3026;53.612;7.278;2023-04-15T06:28:43;7.10;;;4.50;;
5995;SDS011;3026;53.612;7.278;2023-04-15T06:31:10;5.40;;;4.13;;
5995;SDS011;3026;53.612;7.278;2023-04-15T06:33:36;7.43;;;4.33;;
5995;SDS011;3026;53.612;7.278;2023-04-15T06:36:05;7.20;;;4.23;;
5995;SDS011;3026;53.612;7.278;2023-04-15T06:38:32;4.90;;;3.67;;
5995;SDS011;3026;53.612;7.278;2023-04-15T06:40:59;8.73;;;4.00;;
5995;SDS011;3026;53.612;7.278;2023-04-15T06:43:25;6.53;;;4.30;;
5995;SDS011;3026;53.612;7.278;2023-04-15T06:45:52;6.70;;;4.07;;
5995;SDS011;3026;53.612;7.278;2023-04-15T06:48:19;8.33;;;4.10;;
5995;SDS011;3026;53.612;7.278;2023-04-15T06:50:46;4.97;;;4.00;;
5995;SDS011;3026;53.612;7.278;2023-04-15T06:53:15;8.00;;;5.07;;
5995;SDS011;3026;53.612;7.278;2023-04-15T06:55:42;5.67;;;4.37;;
5995;SDS011;3026;53.612;7.278;2023-04-15T06:58:09;8.43;;;4.57;;
5995;SDS011;3026;53.612;7.278;2023-04-15T07:00:35;8.80;;;4.33;;
5995;SDS011;3026;53.612;7.278;2023-04-15T07:03:03;5.10;;;4.07;;
5995;SDS011;3026;53.612;7.278;2023-04-15T07:05:30;5.90;;;4.03;;
5995;SDS011;3026;53.612;7.278;2023-04-15T07:07:57;5.93;;;3.67;;
5995;SDS011;3026;53.612;7.278;2023-04-15T07:10:25;5.73;;;3.60;;
5995;SDS011;3026;53.612;7.278;2023-04-15T07:12:52;5.30;;;3.30;;
5995;SDS011;3026;53.612;7.278;2023-04-15T07:15:19;5.50;;;3.30;;
5995;SDS011;3026;53.612;7.278;2023-04-15T07:17:46;5.70;;;3.97;;
5995;SDS011;3026;53.612;7.278;2023-04-15T07:20:13;5.33;;;3.27;;
5995;SDS011;3026;53.612;7.278;2023-04-15T07:22:40;7.40;;;4.07;;
5995;SDS011;3026;53.612;7.278;2023-04-15T07:25:07;5.97;;;3.80;;
5995;SDS011;3026;53.612;7.278;2023-04-15T07:27:35;6.53;;;3.90;;
5995;SDS011;3026;53.612;7.278;2023-04-15T07:30:02;8.07;;;4.30;;
5995;SDS011;3026;53.612;7.278;2023-04-15T07:32:29;5.60;;;3.93;;
5995;SDS011;3026;53.612;7.278;2023-04-15T07:34:56;9.67;;;3.83;;
5995;SDS011;3026;53.612;7.278;2023-04-15T07:37:23;6.53;;;4.57;;
5995;SDS011;3026;53.612;7.278;2023-04-15T07:39:50;5.07;;;3.70;;
5995;SDS011;3026;53.612;7.278;2023-04-15T07:42:16;5.57;;;3.60;;
5995;SDS011;3026;53.612;7.278;2023-04-15T07:44:45;6.63;;;3.73;;
5995;SDS011;3026;53.612;7.278;2023-04-15T07:47:12;7.03;;;3.80;;
5995;SDS011;3026;53.612;7.278;2023-04-15T07:49:40;6.90;;;4.27;;
5995;SDS011;3026;53.612;7.278;2023-04-15T07:52:07;6.67;;;3.40;;
5995;SDS011;3026;53.612;7.278;2023-04-15T07:54:34;6.67;;;3.37;;
5995;SDS011;3026;53.612;7.278;2023-04-15T07:57:00;8.63;;;3.57;;
5995;SDS011;3026;53.612;7.278;2023-04-15T07:59:28;7.53;;;3.57;;
5995;SDS011;3026;53.612;7.278;2023-04-15T08:01:58;5.67;;;3.60;;
5995;SDS011;3026;53.612;7.278;2023-04-15T08:04:25;7.37;;;3.20;;
5995;SDS011;3026;53.612;7.278;2023-04-15T08:06:52;8.77;;;3.23;;
5995;SDS011;3026;53.612;7.278;2023-04-15T08:09:19;9.40;;;3.90;;
5995;SDS011;3026;53.612;7.278;2023-04-15T08:11:47;8.73;;;3.80;;
5995;SDS011;3026;53.612;7.278;2023-04-15T08:14:14;5.37;;;2.60;;
5995;SDS011;3026;53.612;7.278;2023-04-15T08:16:41;6.90;;;3.07;;
5995;SDS011;3026;53.612;7.278;2023-04-15T08:19:10;5.87;;;2.80;;
5995;SDS011;3026;53.612;7.278;2023-04-15T08:21:36;7.57;;;3.00;;
5995;SDS011;3026;53.612;7.278;2023-04-15T08:24:03;5.67;;;3.00;;
5995;SDS011;3026;53.612;7.278;2023-04-15T08:26:32;7.50;;;2.47;;
5995;SDS011;3026;53.612;7.278;2023-04-15T08:28:58;4.60;;;2.50;;
5995;SDS011;3026;53.612;7.278;2023-04-15T08:31:25;6.67;;;2.67;;
5995;SDS011;3026;53.612;7.278;2023-04-15T08:33:55;4.23;;;2.50;;
5995;SDS011;3026;53.612;7.278;2023-04-15T08:36:23;5.60;;;2.27;;
5995;SDS011;3026;53.612;7.278;2023-04-15T08:38:51;4.67;;;2.60;;
5995;SDS011;3026;53.612;7.278;2023-04-15T08:41:20;9.10;;;2.77;;
5995;SDS011;3026;53.612;7.278;2023-04-15T08:43:51;3.60;;;2.60;;
5995;SDS011;3026;53.612;7.278;2023-04-15T08:46:20;4.40;;;3.00;;
5995;SDS011;3026;53.612;7.278;2023-04-15T08:48:48;7.10;;;2.50;;
5995;SDS011;3026;53.612;7.278;2023-04-15T08:51:15;4.67;;;3.00;;
5995;SDS011;3026;53.612;7.278;2023-04-15T08:53:44;9.37;;;3.00;;
5995;SDS011;3026;53.612;7.278;2023-04-15T08:56:13;7.80;;;2.50;;
5995;SDS011;3026;53.612;7.278;2023-04-15T08:58:40;8.10;;;3.10;;
5995;SDS011;3026;53.612;7.278;2023-04-15T09:01:08;5.87;;;2.80;;
5995;SDS011;3026;53.612;7.278;2023-04-15T09:03:38;4.53;;;2.30;;
5995;SDS011;3026;53.612;7.278;2023-04-15T09:06:05;6.87;;;2.77;;
5995;SDS011;3026;53.612;7.278;2023-04-15T09:08:34;11.60;;;3.23;;
5995;SDS011;3026;53.612;7.278;2023-04-15T09:11:03;5.60;;;2.77;;
5995;SDS011;3026;53.612;7.278;2023-04-15T09:13:30;6.47;;;2.90;;
5995;SDS011;3026;53.612;7.278;2023-04-15T09:15:57;5.43;;;2.17;;
5995;SDS011;3026;53.612;7.278;2023-04-15T09:18:27;5.17;;;2.43;;
5995;SDS011;3026;53.612;7.278;2023-04-15T09:20:54;8.30;;;2.60;;
5995;SDS011;3026;53.612;7.278;2023-04-15T09:23:22;6.87;;;2.67;;
5995;SDS011;3026;53.612;7.278;2023-04-15T09:25:48;4.60;;;2.53;;
5995;SDS011;3026;53.612;7.278;2023-04-15T09:28:22;4.77;;;2.43;;
5995;SDS011;3026;53.612;7.278;2023-04-15T09:30:50;3.93;;;2.23;;
5995;SDS011;3026;53.612;7.278;2023-04-15T09:33:17;4.87;;;2.30;;
5995;SDS011;3026;53.612;7.278;2023-04-15T09:35:54;7.57;;;3.17;;
5995;SDS011;3026;53.612;7.278;2023-04-15T09:38:23;4.90;;;2.50;;
5995;SDS011;3026;53.612;7.278;2023-04-15T09:40:49;8.70;;;2.70;;
5995;SDS011;3026;53.612;7.278;2023-04-15T09:43:18;3.40;;;2.30;;
5995;SDS011;3026;53.612;7.278;2023-04-15T09:45:48;4.57;;;2.00;;
5995;SDS011;3026;53.612;7.278;2023-04-15T09:48:17;6.13;;;2.53;;
5995;SDS011;3026;53.612;7.278;2023-04-15T09:50:46;5.53;;;2.20;;
5995;SDS011;3026;53.612;7.278;2023-04-15T09:53:17;6.30;;;2.50;;
5995;SDS011;3026;53.612;7.278;2023-04-15T09:55:45;5.47;;;2.70;;
5995;SDS011;3026;53.612;7.278;2023-04-15T09:58:20;5.03;;;2.23;;
5995;SDS011;3026;53.612;7.278;2023-04-15T10:00:47;5.87;;;2.13;;
5995;SDS011;3026;53.612;7.278;2023-04-15T10:03:16;8.97;;;3.10;;
5995;SDS011;3026;53.612;7.278;2023-04-15T10:05:45;8.67;;;2.70;;
5995;SDS011;3026;53.612;7.278;2023-04-15T10:08:14;6.50;;;2.47;;
5995;SDS011;3026;53.612;7.278;2023-04-15T10:10:43;4.50;;;2.10;;
5995;SDS011;3026;53.612;7.278;2023-04-15T10:13:10;7.43;;;2.77;;
5995;SDS011;3026;53.612;7.278;2023-04-15T10:15:40;13.13;;;3.03;;
5995;SDS011;3026;53.612;7.278;2023-04-15T10:18:12;5.13;;;2.47;;
5995;SDS011;3026;53.612;7.278;2023-04-15T10:20:41;11.63;;;3.37;;
5995;SDS011;3026;53.612;7.278;2023-04-15T10:23:09;4.37;;;2.13;;
5995;SDS011;3026;53.612;7.278;2023-04-15T10:25:36;10.03;;;2.93;;
5995;SDS011;3026;53.612;7.278;2023-04-15T10:28:04;8.03;;;2.57;;
5995;SDS011;3026;53.612;7.278;2023-04-15T10:30:32;5.40;;;2.00;;
5995;SDS011;3026;53.612;7.278;2023-04-15T10:33:00;7.23;;;2.23;;
5995;SDS011;3026;53.612;7.278;2023-04-15T10:35:28;8.87;;;2.70;;
5995;SDS011;3026;53.612;7.278;2023-04-15T10:37:57;7.27;;;2.47;;
5995;SDS011;3026;53.612;7.278;2023-04-15T10:40:25;8.50;;;2.80;;
5995;SDS011;3026;53.612;7.278;2023-04-15T10:42:57;6.50;;;1.70;;
5995;SDS011;3026;53.612;7.278;2023-04-15T10:45:26;5.37;;;2.03;;
5995;SDS011;3026;53.612;7.278;2023-04-15T10:47:54;8.50;;;1.70;;
5995;SDS011;3026;53.612;7.278;2023-04-15T10:50:25;8.23;;;1.83;;
5995;SDS011;3026;53.612;7.278;2023-04-15T10:52:54;4.50;;;2.20;;
5995;SDS011;3026;53.612;7.278;2023-04-15T10:55:22;7.03;;;2.07;;
5995;SDS011;3026;53.612;7.278;2023-04-15T10:57:53;6.83;;;1.83;;
5995;SDS011;3026;53.612;7.278;2023-04-15T11:00:23;10.10;;;2.60;;
5995;SDS011;3026;53.612;7.278;2023-04-15T11:02:52;8.53;;;2.43;;
5995;SDS011;3026;53.612;7.278;2023-04-15T11:05:20;8.47;;;2.67;;
5995;SDS011;3026;53.612;7.278;2023-04-15T11:07:51;10.23;;;2.73;;
5995;SDS011;3026;53.612;7.278;2023-04-15T11:13:23;7.13;;;2.00;;
5995;SDS011;3026;53.612;7.278;2023-04-15T11:15:54;7.57;;;2.10;;
5995;SDS011;3026;53.612;7.278;2023-04-15T11:18:24;7.40;;;2.30;;
5995;SDS011;3026;53.612;7.278;2023-04-15T11:20:53;9.40;;;2.20;;
5995;SDS011;3026;53.612;7.278;2023-04-15T11:23:28;14.47;;;7.67;;
5995;SDS011;3026;53.612;7.278;2023-04-15T11:25:56;6.97;;;2.00;;
5995;SDS011;3026;53.612;7.278;2023-04-15T11:28:25;7.80;;;1.97;;
5995;SDS011;3026;53.612;7.278;2023-04-15T11:30:53;7.93;;;2.10;;
5995;SDS011;3026;53.612;7.278;2023-04-15T11:33:20;12.73;;;2.20;;
5995;SDS011;3026;53.612;7.278;2023-04-15T11:35:48;5.20;;;2.07;;
5995;SDS011;3026;53.612;7.278;2023-04-15T11:38:17;5.40;;;1.87;;
5995;SDS011;3026;53.612;7.278;2023-04-15T11:40:45;6.63;;;2.03;;
5995;SDS011;3026;53.612;7.278;2023-04-15T11:43:13;11.83;;;2.20;;
5995;SDS011;3026;53.612;7.278;2023-04-15T11:45:48;11.77;;;3.00;;
5995;SDS011;3026;53.612;7.278;2023-04-15T11:48:17;14.47;;;2.60;;
5995;SDS011;3026;53.612;7.278;2023-04-15T11:50:45;11.57;;;2.40;;
5995;SDS011;3026;53.612;7.278;2023-04-15T11:53:12;8.13;;;2.30;;
5995;SDS011;3026;53.612;7.278;2023-04-15T11:55:42;7.80;;;2.20;;
5995;SDS011;3026;53.612;7.278;2023-04-15T11:58:13;12.27;;;2.20;;
5995;SDS011;3026;53.612;7.278;2023-04-15T12:00:44;11.87;;;2.73;;
5995;SDS011;3026;53.612;7.278;2023-04-15T12:03:16;9.43;;;2.37;;
5995;SDS011;3026;53.612;7.278;2023-04-15T12:06:04;7.17;;;2.37;;
5995;SDS011;3026;53.612;7.278;2023-04-15T12:08:54;8.83;;;1.97;;
5995;SDS011;3026;53.612;7.278;2023-04-15T12:11:30;10.43;;;2.30;;
5995;SDS011;3026;53.612;7.278;2023-04-15T12:14:01;6.10;;;2.17;;
5995;SDS011;3026;53.612;7.278;2023-04-15T12:16:31;5.67;;;2.00;;
5995;SDS011;3026;53.612;7.278;2023-04-15T12:18:59;9.73;;;2.40;;
5995;SDS011;3026;53.612;7.278;2023-04-15T12:21:32;7.17;;;2.07;;
5995;SDS011;3026;53.612;7.278;2023-04-15T12:24:00;6.47;;;2.10;;
5995;SDS011;3026;53.612;7.278;2023-04-15T12:26:29;6.87;;;2.40;;
5995;SDS011;3026;53.612;7.278;2023-04-15T12:29:01;9.67;;;2.23;;
5995;SDS011;3026;53.612;7.278;2023-04-15T12:31:28;6.87;;;2.20;;
5995;SDS011;3026;53.612;7.278;2023-04-15T12:33:55;9.17;;;2.63;;
5995;SDS011;3026;53.612;7.278;2023-04-15T12:36:23;9.83;;;2.37;;
5995;SDS011;3026;53.612;7.278;2023-04-15T12:38:50;13.23;;;2.60;;
5995;SDS011;3026;53.612;7.278;2023-04-15T12:41:17;8.93;;;2.50;;
5995;SDS011;3026;53.612;7.278;2023-04-15T12:43:44;7.47;;;2.03;;
5995;SDS011;3026;53.612;7.278;2023-04-15T12:46:12;8.20;;;2.40;;
5995;SDS011;3026;53.612;7.278;2023-04-15T12:48:39;9.83;;;2.37;;
5995;SDS011;3026;53.612;7.278;2023-04-15T12:51:06;6.57;;;2.20;;
5995;SDS011;3026;53.612;7.278;2023-04-15T12:53:33;6.63;;;2.50;;
5995;SDS011;3026;53.612;7.278;2023-04-15T12:56:00;9.10;;;2.93;;
5995;SDS011;3026;53.612;7.278;2023-04-15T12:58:27;8.70;;;2.47;;
5995;SDS011;3026;53.612;7.278;2023-04-15T13:00:53;11.33;;;2.20;;
5995;SDS011;3026;53.612;7.278;2023-04-15T13:03:22;8.63;;;2.77;;
5995;SDS011;3026;53.612;7.278;2023-04-15T13:05:49;9.47;;;3.00;;
5995;SDS011;3026;53.612;7.278;2023-04-15T13:08:16;11.57;;;2.70;;
5995;SDS011;3026;53.612;7.278;2023-04-15T13:10:44;13.80;;;3.13;;
5995;SDS011;3026;53.612;7.278;2023-04-15T13:13:10;7.53;;;2.33;;
5995;SDS011;3026;53.612;7.278;2023-04-15T13:15:37;8.50;;;2.50;;
5995;SDS011;3026;53.612;7.278;2023-04-15T13:18:05;11.73;;;2.47;;
5995;SDS011;3026;53.612;7.278;2023-04-15T13:20:34;10.43;;;2.97;;
5995;SDS011;3026;53.612;7.278;2023-04-15T13:23:01;10.73;;;2.40;;
5995;SDS011;3026;53.612;7.278;2023-04-15T13:25:28;7.77;;;2.67;;
5995;SDS011;3026;53.612;7.278;2023-04-15T13:27:55;13.13;;;2.50;;
5995;SDS011;3026;53.612;7.278;2023-04-15T13:30:23;12.10;;;2.67;;
5995;SDS011;3026;53.612;7.278;2023-04-15T13:32:50;10.50;;;2.43;;
5995;SDS011;3026;53.612;7.278;2023-04-15T13:35:18;6.47;;;2.63;;
5995;SDS011;3026;53.612;7.278;2023-04-15T13:37:46;9.73;;;3.27;;
5995;SDS011;3026;53.612;7.278;2023-04-15T13:40:13;12.70;;;2.37;;
5995;SDS011;3026;53.612;7.278;2023-04-15T13:42:40;8.77;;;2.37;;
5995;SDS011;3026;53.612;7.278;2023-04-15T13:45:08;10.77;;;2.83;;
5995;SDS011;3026;53.612;7.278;2023-04-15T13:47:36;6.90;;;2.50;;
5995;SDS011;3026;53.612;7.278;2023-04-15T13:50:03;9.30;;;3.10;;
5995;SDS011;3026;53.612;7.278;2023-04-15T13:52:30;8.47;;;2.63;;
5995;SDS011;3026;53.612;7.278;2023-04-15T13:54:59;5.97;;;2.50;;
5995;SDS011;3026;53.612;7.278;2023-04-15T13:57:25;11.07;;;2.40;;
5995;SDS011;3026;53.612;7.278;2023-04-15T13:59:52;11.07;;;3.23;;
5995;SDS011;3026;53.612;7.278;2023-04-15T14:02:19;9.27;;;3.00;;
5995;SDS011;3026;53.612;7.278;2023-04-15T14:04:47;8.40;;;3.00;;
5995;SDS011;3026;53.612;7.278;2023-04-15T14:07:13;12.47;;;3.70;;
5995;SDS011;3026;53.612;7.278;2023-04-15T14:09:41;15.40;;;3.57;;
5995;SDS011;3026;53.612;7.278;2023-04-15T14:12:10;6.83;;;3.10;;
5995;SDS011;3026;53.612;7.278;2023-04-15T14:14:37;11.93;;;3.97;;
5995;SDS011;3026;53.612;7.278;2023-04-15T14:17:04;9.70;;;3.03;;
5995;SDS011;3026;53.612;7.278;2023-04-15T14:19:30;12.17;;;3.87;;
5995;SDS011;3026;53.612;7.278;2023-04-15T14:21:57;16.60;;;4.73;;
5995;SDS011;3026;53.612;7.278;2023-04-15T14:24:24;11.93;;;4.10;;
5995;SDS011;3026;53.612;7.278;2023-04-15T14:26:51;12.83;;;4.13;;
5995;SDS011;3026;53.612;7.278;2023-04-15T14:29:19;16.07;;;3.70;;
5995;SDS011;3026;53.612;7.278;2023-04-15T14:31:46;9.60;;;3.53;;
5995;SDS011;3026;53.612;7.278;2023-04-15T14:34:14;13.53;;;5.27;;
5995;SDS011;3026;53.612;7.278;2023-04-15T14:36:41;12.10;;;3.60;;
5995;SDS011;3026;53.612;7.278;2023-04-15T14:39:08;14.97;;;4.30;;
5995;SDS011;3026;53.612;7.278;2023-04-15T14:41:35;13.30;;;3.87;;
5995;SDS011;3026;53.612;7.278;2023-04-15T14:44:02;15.43;;;5.30;;
5995;SDS011;3026;53.612;7.278;2023-04-15T14:46:31;16.40;;;4.97;;
5995;SDS011;3026;53.612;7.278;2023-04-15T14:48:58;15.87;;;4.43;;
5995;SDS011;3026;53.612;7.278;2023-04-15T14:51:25;14.97;;;4.90;;
5995;SDS011;3026;53.612;7.278;2023-04-15T14:53:52;19.13;;;5.97;;
5995;SDS011;3026;53.612;7.278;2023-04-15T14:56:19;13.83;;;4.80;;
5995;SDS011;3026;53.612;7.278;2023-04-15T14:58:46;13.40;;;4.63;;
5995;SDS011;3026;53.612;7.278;2023-04-15T15:01:13;17.17;;;5.80;;
5995;SDS011;3026;53.612;7.278;2023-04-15T15:03:41;18.03;;;5.17;;
5995;SDS011;3026;53.612;7.278;2023-04-15T15:06:08;21.83;;;5.70;;
5995;SDS011;3026;53.612;7.278;2023-04-15T15:08:35;25.67;;;6.57;;
5995;SDS011;3026;53.612;7.278;2023-04-15T15:11:02;17.07;;;5.80;;
5995;SDS011;3026;53.612;7.278;2023-04-15T15:13:28;17.27;;;6.00;;
5995;SDS011;3026;53.612;7.278;2023-04-15T15:15:55;24.40;;;6.97;;
5995;SDS011;3026;53.612;7.278;2023-04-15T15:18:22;24.20;;;6.57;;